createdAt,value
2023-03-26T00:10:07.527Z,983.8
2023-03-26T00:20:46.593Z,983.7
2023-03-26T00:26:05.253Z,983.6
2023-03-26T00:36:44.040Z,983.8
2023-03-26T00:42:02.752Z,983.7
2023-03-26T00:52:41.610Z,983.7
2023-03-26T00:58:00.686Z,983.6
2023-03-26T01:03:26.634Z,983.5
2023-03-26T01:08:38.592Z,983.5
2023-03-26T01:19:17.677Z,983.4
2023-03-26T01:24:37.284Z,983.3
2023-03-26T01:35:14.988Z,983.3
2023-03-26T01:45:53.382Z,983.1
2023-03-26T01:56:32.187Z,982.9
2023-03-26T02:01:51.280Z,982.9
2023-03-26T02:12:29.806Z,983
2023-03-26T02:17:49.067Z,982.7
2023-03-26T02:28:28.295Z,982.6
2023-03-26T02:44:26.045Z,982.5
2023-03-26T02:55:04.838Z,982.3
2023-03-26T03:00:24.519Z,982.3
2023-03-26T03:11:03.178Z,982.1
2023-03-26T03:16:22.952Z,982
2023-03-26T03:27:01.288Z,982
2023-03-26T03:37:39.583Z,982
2023-03-26T03:42:58.205Z,981.9
2023-03-26T03:53:36.712Z,981.9
2023-03-26T03:58:55.775Z,982
2023-03-26T04:09:34.621Z,981.7
2023-03-26T04:20:13.109Z,981.7
2023-03-26T04:25:32.070Z,981.7
2023-03-26T04:36:10.897Z,981.5
2023-03-26T04:41:30.484Z,981.4
2023-03-26T04:46:49.515Z,981.2
2023-03-26T04:52:08.540Z,981.1
2023-03-26T04:57:28.364Z,981.1
2023-03-26T05:08:06.798Z,980.9
2023-03-26T05:18:45.890Z,980.6
2023-03-26T05:24:05.609Z,980.5
2023-03-26T05:34:43.918Z,980.2
2023-03-26T05:40:02.912Z,980.2
2023-03-26T05:45:22.556Z,980.1
2023-03-26T05:50:41.068Z,979.9
2023-03-26T06:01:20.248Z,979.7
2023-03-26T06:06:39.127Z,979.6
2023-03-26T06:17:16.952Z,979.6
2023-03-26T06:22:36.486Z,979.6
2023-03-26T06:33:15.230Z,979.5
2023-03-26T06:43:53.368Z,979.3
2023-03-26T06:49:13.234Z,979.2
2023-03-26T06:59:51.221Z,979.1
2023-03-26T07:05:10.347Z,979
2023-03-26T07:15:49.109Z,979
2023-03-26T07:31:46.487Z,978.8
2023-03-26T07:42:24.870Z,978.5
2023-03-26T07:47:43.774Z,978.5
2023-03-26T07:58:22.458Z,978.3
2023-03-26T08:03:42.250Z,978.2
2023-03-26T08:09:01.585Z,978.1
2023-03-26T08:14:20.917Z,978
2023-03-26T08:24:58.969Z,977.9
2023-03-26T08:35:37.721Z,977.8
2023-03-26T08:40:56.910Z,977.7
2023-03-26T08:46:16.384Z,977.7
2023-03-26T08:51:35.122Z,977.6
2023-03-26T09:02:12.879Z,977.7
2023-03-26T09:07:32.058Z,977.7
2023-03-26T09:18:10.374Z,977.6
2023-03-26T09:23:29.727Z,977.6
2023-03-26T09:28:49.415Z,977.5
2023-03-26T09:34:08.602Z,977.4
2023-03-26T09:44:47.450Z,977.5
2023-03-26T09:50:06.406Z,977.5
2023-03-26T10:00:44.908Z,977.4
2023-03-26T10:06:03.958Z,977.3
2023-03-26T10:16:42.322Z,977.2
2023-03-26T10:27:20.438Z,977.1
2023-03-26T10:32:39.881Z,977.1
2023-03-26T10:43:18.776Z,977.1
2023-03-26T10:48:37.720Z,977.1
2023-03-26T10:59:17.508Z,977.2
2023-03-26T11:04:36.511Z,977.1
2023-03-26T11:09:56.048Z,977.2
2023-03-26T11:15:14.882Z,977.1
2023-03-26T11:25:53.814Z,976.9
2023-03-26T11:31:13.269Z,976.7
2023-03-26T11:41:51.647Z,976.5
2023-03-26T11:47:11.214Z,976.4
2023-03-26T11:57:50.156Z,976.3
2023-03-26T12:08:28.110Z,976
2023-03-26T12:13:47.544Z,975.8
2023-03-26T12:24:25.752Z,975.8
2023-03-26T12:29:44.942Z,976
2023-03-26T12:40:24.067Z,975.9
2023-03-26T12:56:21.197Z,975.8
2023-03-26T13:07:00.108Z,975.7
2023-03-26T13:12:18.258Z,975.5
2023-03-26T13:22:57.022Z,975.2
2023-03-26T13:28:15.680Z,975.1
2023-03-26T13:33:34.473Z,975.1
2023-03-26T13:38:58.682Z,975.2
2023-03-26T13:49:31.898Z,974.9
2023-03-26T13:54:51.116Z,974.9
2023-03-26T14:05:29.679Z,974.5
2023-03-26T14:16:08.398Z,974.6
2023-03-26T14:21:27.760Z,974.7
2023-03-26T14:32:06.097Z,974.6
2023-03-26T14:37:27.070Z,974.5
2023-03-26T14:48:03.550Z,974.6
2023-03-26T14:53:22.570Z,974.7
2023-03-26T15:04:01.484Z,974.4
2023-03-26T15:14:40.064Z,974.5
2023-03-26T15:25:18.385Z,974.5
2023-03-26T15:31:01.816Z,974.5
2023-03-26T15:41:40.269Z,974.5
2023-03-26T15:47:00.019Z,974.5
2023-03-26T15:57:37.863Z,974.4
2023-03-26T16:02:57.566Z,974.6
2023-03-26T16:13:36.596Z,974.5
2023-03-26T16:24:15.080Z,974.8
2023-03-26T16:29:34.052Z,974.8
2023-03-26T16:40:12.894Z,974.8
2023-03-26T16:45:31.797Z,975.1
2023-03-26T16:56:09.520Z,975.3
2023-03-26T17:12:08.088Z,975.6
2023-03-26T17:22:47.030Z,975.9
2023-03-26T17:28:06.246Z,976.1
2023-03-26T17:38:45.628Z,975.8
2023-03-26T17:44:04.519Z,975.9
2023-03-26T17:49:23.738Z,976
2023-03-26T17:54:43.087Z,976.1
2023-03-26T18:05:21.313Z,976.1
2023-03-26T18:10:40.512Z,976.2
2023-03-26T18:21:19.662Z,976.3
2023-03-26T18:26:39.333Z,976.2
2023-03-26T18:31:58.809Z,976.3
2023-03-26T18:37:18.308Z,976.2
2023-03-26T18:47:56.988Z,976
2023-03-26T18:53:16.535Z,976.1
2023-03-26T19:03:55.325Z,976.1
2023-03-26T19:09:28.538Z,976.2
2023-03-26T19:19:53.204Z,976.1
2023-03-26T19:35:50.923Z,976.2
2023-03-26T19:46:29.328Z,976.2
2023-03-26T19:51:48.555Z,976.2
2023-03-26T20:02:27.162Z,976.1
2023-03-26T20:18:25.118Z,976.1
2023-03-26T20:29:04.788Z,976.1
2023-03-26T20:34:23.036Z,976.1
2023-03-26T20:45:01.910Z,976
2023-03-26T20:50:21.614Z,976.1
2023-03-26T21:01:00.001Z,975.9
2023-03-26T21:06:19.177Z,975.9
2023-03-26T21:11:38.381Z,975.9
2023-03-26T21:16:57.511Z,975.9
2023-03-26T21:27:35.726Z,975.9
2023-03-26T21:32:54.786Z,976
2023-03-26T21:43:33.193Z,976.1
2023-03-26T21:48:52.283Z,976.2
2023-03-26T21:54:11.073Z,976.2
2023-03-26T22:04:49.226Z,976.3
2023-03-26T22:10:08.126Z,976.4
2023-03-26T22:20:46.940Z,976.4
2023-03-26T22:26:06.264Z,976.4
2023-03-26T22:31:25.197Z,976.5
2023-03-26T22:36:44.263Z,976.6
2023-03-26T22:47:22.025Z,976.6
2023-03-26T22:52:41.049Z,976.6
2023-03-26T23:03:19.098Z,976.8
2023-03-26T23:08:38.265Z,976.8
2023-03-26T23:19:15.733Z,976.9
2023-03-26T23:29:53.598Z,977.1
2023-03-26T23:35:12.343Z,977.2
2023-03-26T23:45:51.033Z,977.3
2023-03-26T23:51:10.001Z,977.4
